Time;durP1;ratioP1;P1;durP2;ratioP2;P2;SDS_P1;SDS_P2;PMS_P1;PMS_P2;Temp;Humidity;BMP_temperature;BMP_pressure;BME280_temperature;BME280_humidity;BME280_pressure;Samples;Min_cycle;Max_cycle;Signal;HPM_P1;HPM_P2
2023/10/18 00:02:07;;;;;;;32.90;17.90;;;;;;;7.01;67.88;99356.27;234638;214;146494;-60
2023/10/18 00:07:12;;;;;;;36.40;18.50;;;;;;;7.03;67.76;99363.58;234780;214;140543;-61
2023/10/18 00:12:20;;;;;;;32.80;18.30;;;;;;;7.04;67.77;99360.88;234865;214;138136;-64
2023/10/18 00:17:23;;;;;;;29.30;17.10;;;;;;;7.01;67.78;99359.08;234586;214;145679;-65
2023/10/18 00:22:26;;;;;;;30.50;19.40;;;;;;;7.01;67.82;99353.83;234725;214;138738;-63
2023/10/18 00:27:30;;;;;;;33.40;20.90;;;;;;;6.99;67.99;99347.02;234751;214;136794;-64
2023/10/18 00:32:36;;;;;;;32.30;20.60;;;;;;;6.96;68.18;99344.14;234667;214;145445;-61
2023/10/18 00:37:43;;;;;;;32.10;21.50;;;;;;;6.92;68.19;99337.77;234820;214;139434;-62
2023/10/18 00:42:47;;;;;;;31.40;20.50;;;;;;;6.91;68.27;99331.13;234701;214;137438;-63
2023/10/18 00:47:50;;;;;;;37.20;21.10;;;;;;;6.90;68.29;99322.72;234683;214;145803;-62
2023/10/18 00:52:54;;;;;;;36.50;21.40;;;;;;;6.90;68.25;99318.81;234393;214;139181;-65
2023/10/18 00:57:58;;;;;;;33.50;21.80;;;;;;;6.95;68.32;99311.03;234471;214;137963;-62
2023/10/18 01:03:06;;;;;;;36.20;21.80;;;;;;;6.97;68.08;99306.52;234575;215;147136;-65
2023/10/18 01:08:10;;;;;;;37.90;22.60;;;;;;;6.96;68.13;99299.34;234547;215;138954;-64
2023/10/18 01:13:13;;;;;;;36.30;21.30;;;;;;;6.94;67.99;99299.77;234569;214;137215;-69
2023/10/18 01:18:18;;;;;;;35.30;22.40;;;;;;;6.93;68.15;99298.92;234467;214;145366;-65
2023/10/18 01:23:21;;;;;;;33.70;21.70;;;;;;;6.90;68.10;99300.48;234452;214;140753;-65
2023/10/18 01:28:24;;;;;;;40.70;21.90;;;;;;;6.85;67.99;99302.80;234540;214;137916;-64
2023/10/18 01:33:28;;;;;;;38.50;22.90;;;;;;;6.79;67.97;99302.66;234390;215;146391;-64
2023/10/18 01:38:33;;;;;;;43.90;23.80;;;;;;;6.76;68.11;99300.88;234533;214;138681;-65
2023/10/18 01:43:37;;;;;;;42.10;23.70;;;;;;;6.73;68.20;99301.02;234672;214;136892;-62
2023/10/18 01:48:40;;;;;;;40.00;24.20;;;;;;;6.68;68.18;99299.30;234573;214;146144;-65
2023/10/18 01:53:44;;;;;;;38.00;23.80;;;;;;;6.62;68.13;99300.08;234570;214;140453;-66
2023/10/18 01:58:48;;;;;;;36.40;21.80;;;;;;;6.56;68.21;99303.14;234627;215;137054;-64
2023/10/18 02:03:53;;;;;;;39.40;22.70;;;;;;;6.57;68.49;99301.30;234477;215;145697;-63
2023/10/18 02:08:56;;;;;;;42.60;22.90;;;;;;;6.62;68.17;99299.70;234441;215;138757;-64
2023/10/18 02:14:01;;;;;;;37.40;23.00;;;;;;;6.65;67.87;99296.23;234527;214;137268;-65
2023/10/18 02:19:06;;;;;;;36.80;22.80;;;;;;;6.60;67.70;99290.29;234775;214;145721;-62
2023/10/18 02:24:11;;;;;;;37.20;22.40;;;;;;;6.48;67.79;99293.95;234495;214;139560;-62
2023/10/18 02:29:16;;;;;;;34.50;21.50;;;;;;;6.38;68.00;99295.41;234484;215;137443;-63
2023/10/18 02:34:20;;;;;;;41.10;23.10;;;;;;;6.31;68.33;99297.79;234422;215;146292;-64
2023/10/18 02:39:34;;;;;;;35.30;22.20;;;;;;;6.29;68.31;99293.29;234504;215;139206;-67
2023/10/18 02:44:45;;;;;;;39.50;22.30;;;;;;;6.21;68.08;99293.27;234551;214;137651;-65
2023/10/18 02:49:51;;;;;;;40.70;23.00;;;;;;;6.10;68.07;99295.12;234597;214;145612;-68
2023/10/18 02:54:57;;;;;;;38.50;21.60;;;;;;;6.00;68.26;99295.71;234626;214;139044;-66
2023/10/18 03:00:10;;;;;;;33.60;21.30;;;;;;;5.92;68.65;99301.81;234538;214;249986;-66
2023/10/18 03:05:18;;;;;;;33.90;21.90;;;;;;;5.95;69.06;99300.50;234560;214;145869;-65
2023/10/18 03:10:27;;;;;;;35.10;21.00;;;;;;;6.01;68.94;99303.08;234497;215;140071;-62
2023/10/18 03:15:31;;;;;;;36.30;21.50;;;;;;;6.03;68.63;99293.66;234532;215;137373;-64
2023/10/18 03:20:37;;;;;;;39.60;22.80;;;;;;;6.09;68.59;99294.65;234520;214;145730;-65
2023/10/18 03:25:41;;;;;;;38.20;21.50;;;;;;;6.11;68.33;99295.98;234618;215;138758;-67
2023/10/18 03:30:44;;;;;;;38.20;22.60;;;;;;;6.08;68.18;99289.58;234555;214;137121;-64
2023/10/18 03:36:20;;;;;;;38.70;21.60;;;;;;;6.05;68.11;99285.12;234470;215;146522;-66
2023/10/18 03:41:33;;;;;;;42.20;22.80;;;;;;;6.00;68.14;99282.85;234440;214;139043;-64
2023/10/18 03:46:48;;;;;;;36.80;21.90;;;;;;;5.95;68.21;99274.95;234445;215;137285;-62
2023/10/18 03:51:54;;;;;;;;;;;;;;;5.93;68.19;99268.85;234513;214;146632;-63
2023/10/18 03:56:58;;;;;;;34.80;19.90;;;;;;;5.86;68.20;99255.38;234604;214;140451;-61
2023/10/18 04:02:15;;;;;;;37.40;20.50;;;;;;;5.79;68.32;99251.91;234552;214;138179;-62
2023/10/18 04:07:24;;;;;;;34.90;20.60;;;;;;;5.73;68.20;99249.36;234701;214;146034;-64
2023/10/18 04:12:27;;;;;;;36.70;21.70;;;;;;;5.65;68.21;99248.60;234635;215;138915;-63
2023/10/18 04:17:36;;;;;;;34.80;21.80;;;;;;;5.58;67.98;99248.35;234517;214;138186;-62
2023/10/18 04:22:40;;;;;;;35.20;20.40;;;;;;;5.51;68.27;99257.23;234595;214;147759;-63
2023/10/18 04:27:47;;;;;;;33.90;19.20;;;;;;;5.51;68.20;99262.02;234582;214;138806;-63
2023/10/18 04:33:53;;;;;;;37.20;20.10;;;;;;;5.54;68.07;99265.94;234407;215;138374;-66
2023/10/18 04:38:36;;;;;;;32.70;19.50;;;;;;;5.55;67.78;99261.52;234471;214;147899;-64
2023/10/18 04:43:42;;;;;;;31.70;19.00;;;;;;;5.55;67.87;99261.14;234749;214;138766;-65
2023/10/18 04:54:03;;;;;;;40.70;22.40;;;;;;;5.41;67.96;99264.30;234523;214;147467;-71
2023/10/18 05:04:38;;;;;;;40.20;24.90;;;;;;;5.43;68.54;99272.15;234303;214;137891;-69
2023/10/18 05:14:50;;;;;;;33.80;21.10;;;;;;;5.40;69.15;99275.78;234619;214;139072;-62
2023/10/18 05:19:56;;;;;;;31.00;19.10;;;;;;;5.34;68.20;99261.05;234584;214;137968;-66
2023/10/18 05:30:26;;;;;;;54.20;32.30;;;;;;;5.26;69.02;99273.13;234442;214;138667;-64
2023/10/18 05:35:34;;;;;;;29.80;19.00;;;;;;;5.34;69.38;99272.66;234372;214;138732;-63
2023/10/18 05:45:41;;;;;;;33.60;19.40;;;;;;;5.54;68.03;99262.41;234436;214;140654;-65
2023/10/18 05:51:01;;;;;;;32.60;18.60;;;;;;;5.52;68.15;99271.13;234568;214;138485;-66
2023/10/18 05:56:07;;;;;;;35.40;19.70;;;;;;;5.48;68.31;99273.56;234543;214;148048;-70
2023/10/18 06:01:13;;;;;;;33.10;18.10;;;;;;;5.52;68.48;99273.59;234550;214;140843;-69
2023/10/18 06:06:16;;;;;;;35.00;19.00;;;;;;;5.54;68.56;99270.00;234494;214;138203;-64
2023/10/18 06:11:20;;;;;;;28.50;17.50;;;;;;;5.57;68.65;99277.95;234576;214;147493;-68
2023/10/18 06:16:32;;;;;;;30.70;18.70;;;;;;;5.61;68.84;99275.54;234512;214;140092;-68
2023/10/18 06:21:37;;;;;;;231.30;150.30;;;;;;;5.65;69.24;99277.83;234509;214;137838;-67
2023/10/18 06:26:42;;;;;;;37.50;21.20;;;;;;;5.81;70.57;99277.55;234451;212;147811;-71
2023/10/18 06:31:46;;;;;;;31.80;18.60;;;;;;;5.89;69.43;99271.27;234647;214;138844;-70
2023/10/18 06:36:52;;;;;;;35.40;19.20;;;;;;;5.90;69.28;99268.59;234547;215;136740;-67
2023/10/18 06:41:55;;;;;;;26.90;18.30;;;;;;;6.00;69.19;99270.17;234532;214;148866;-68
2023/10/18 06:47:01;;;;;;;35.70;18.40;;;;;;;6.14;68.97;99276.30;234501;214;139717;-63
2023/10/18 06:52:04;;;;;;;31.10;17.60;;;;;;;6.29;68.83;99263.18;234534;214;151586;-63
2023/10/18 06:57:18;;;;;;;30.60;18.30;;;;;;;6.41;68.54;99263.02;234399;215;147356;-68
2023/10/18 07:02:27;;;;;;;253.70;163.40;;;;;;;6.51;68.37;99261.20;234465;215;138693;-64
2023/10/18 07:07:31;;;;;;;28.80;17.10;;;;;;;6.68;68.53;99259.98;234701;214;137971;-72
2023/10/18 07:12:47;;;;;;;26.80;15.40;;;;;;;6.78;67.81;99256.71;234474;214;147691;-71
2023/10/18 07:17:52;;;;;;;25.50;15.00;;;;;;;6.84;68.00;99261.38;234403;214;138925;-67
2023/10/18 07:22:56;;;;;;;26.40;14.00;;;;;;;6.93;68.02;99259.59;234538;213;138813;-63
2023/10/18 07:28:01;;;;;;;41.50;26.90;;;;;;;7.07;67.90;99260.74;234466;214;147648;-67
2023/10/18 07:33:08;;;;;;;22.70;13.80;;;;;;;7.30;67.51;99256.88;234113;214;139925;-72
2023/10/18 07:38:25;;;;;;;21.50;12.90;;;;;;;7.44;66.83;99245.67;234408;214;137742;-70
2023/10/18 07:43:32;;;;;;;342.70;88.60;;;;;;;7.61;66.56;99241.52;234501;214;148420;-63
2023/10/18 07:48:38;;;;;;;29.90;15.90;;;;;;;7.81;66.30;99235.10;234393;215;139655;-69
2023/10/18 07:53:42;;;;;;;25.70;14.50;;;;;;;7.96;65.53;99234.90;234328;214;137930;-68
2023/10/18 07:58:49;;;;;;;56.30;32.70;;;;;;;8.11;65.37;99226.44;234342;214;149615;-69
2023/10/18 08:03:52;;;;;;;28.90;17.30;;;;;;;8.29;65.47;99227.46;234333;215;139650;-65
2023/10/18 08:08:58;;;;;;;27.60;13.90;;;;;;;8.43;64.15;99219.17;234341;214;137943;-66
2023/10/18 08:14:09;;;;;;;26.60;14.00;;;;;;;8.58;63.90;99213.69;234309;214;150676;-62
2023/10/18 08:19:13;;;;;;;25.30;13.00;;;;;;;8.77;63.56;99216.96;234528;214;138595;-66
2023/10/18 08:24:20;;;;;;;22.20;12.70;;;;;;;8.94;62.88;99215.15;234402;215;138618;-64
2023/10/18 08:29:26;;;;;;;18.50;12.10;;;;;;;9.11;62.15;99206.63;234321;214;147527;-68
2023/10/18 08:34:31;;;;;;;253.30;163.40;;;;;;;9.30;61.94;99201.95;234301;214;138629;-67
2023/10/18 08:39:39;;;;;;;24.70;17.00;;;;;;;9.50;61.80;99204.52;234323;214;138071;-66
2023/10/18 08:44:44;;;;;;;22.80;12.90;;;;;;;9.64;60.96;99194.57;234423;214;147680;-65
2023/10/18 08:49:52;;;;;;;18.90;11.50;;;;;;;9.83;60.57;99187.82;234525;214;139635;-64
2023/10/18 08:54:59;;;;;;;20.90;10.20;;;;;;;10.01;59.77;99189.09;234463;214;137829;-62
2023/10/18 09:05:28;;;;;;;;;;;;;;;10.29;58.29;99188.05;234342;214;139341;-67
2023/10/18 09:10:34;;;;;;;13.70;7.80;;;;;;;10.40;57.66;99181.73;234510;214;132209;-64
2023/10/18 09:21:08;;;;;;;13.90;6.50;;;;;;;10.79;55.55;99168.90;234372;214;141588;-66
2023/10/18 09:26:18;;;;;;;10.20;5.60;;;;;;;10.93;54.71;99168.80;234472;214;137420;-66
2023/10/18 09:31:22;;;;;;;12.80;6.20;;;;;;;11.01;53.45;99165.24;234528;214;147628;-68
2023/10/18 09:36:27;;;;;;;19.40;7.10;;;;;;;11.09;53.47;99155.00;234371;214;138814;-65
2023/10/18 09:41:32;;;;;;;8.30;5.40;;;;;;;11.18;52.98;99153.89;234410;214;138525;-63
2023/10/18 09:46:36;;;;;;;11.50;5.50;;;;;;;11.33;53.07;99160.23;234325;214;148431;-64
2023/10/18 09:51:44;;;;;;;9.80;5.80;;;;;;;11.50;52.95;99154.02;234434;212;138575;-67
2023/10/18 09:56:54;;;;;;;12.40;6.30;;;;;;;11.65;52.51;99146.63;234476;214;137284;-67
2023/10/18 10:02:07;;;;;;;11.90;6.40;;;;;;;11.83;52.52;99144.41;234520;215;147638;-65
2023/10/18 10:07:36;;;;;;;11.70;6.50;;;;;;;12.04;51.80;99140.38;234712;214;139549;-65
2023/10/18 10:12:42;;;;;;;10.80;7.00;;;;;;;12.21;51.59;99134.45;234405;214;137606;-68
2023/10/18 10:17:57;;;;;;;8.90;4.90;;;;;;;12.49;50.96;99131.65;234437;214;147675;-64
2023/10/18 10:23:04;;;;;;;9.40;5.00;;;;;;;12.77;49.60;99126.16;234457;214;141040;-61
2023/10/18 10:28:14;;;;;;;10.50;5.90;;;;;;;12.98;49.24;99118.45;234433;214;137483;-65
2023/10/18 10:33:21;;;;;;;12.40;4.90;;;;;;;13.14;49.35;99119.11;234427;214;148162;-67
2023/10/18 10:38:26;;;;;;;8.00;5.10;;;;;;;13.23;48.56;99112.27;234613;214;139377;-68
2023/10/18 10:43:30;;;;;;;7.70;4.60;;;;;;;13.34;47.77;99110.39;234765;214;137758;-64
2023/10/18 10:48:36;;;;;;;8.10;4.80;;;;;;;13.44;47.13;99103.60;234495;214;147682;-66
2023/10/18 10:53:49;;;;;;;9.90;5.00;;;;;;;13.50;46.86;99097.63;234484;214;139149;-70
2023/10/18 11:04:28;;;;;;;7.50;4.00;;;;;;;13.69;46.27;99088.19;234462;214;147489;-65
2023/10/18 11:09:38;;;;;;;7.70;4.10;;;;;;;13.74;45.40;99082.30;234581;214;138850;-68
2023/10/18 11:14:42;;;;;;;7.60;4.40;;;;;;;13.77;45.22;99072.88;234576;214;136826;-68
2023/10/18 11:19:53;;;;;;;8.00;3.90;;;;;;;13.89;45.50;99063.17;234662;215;147547;-70
2023/10/18 11:24:59;;;;;;;7.70;4.00;;;;;;;14.08;44.47;99063.37;234574;214;141197;-65
2023/10/18 11:35:37;;;;;;;6.70;4.10;;;;;;;14.39;43.97;99041.18;234660;214;147595;-68
2023/10/18 11:40:40;;;;;;;10.70;4.90;;;;;;;14.56;43.76;99040.21;234344;214;138694;-70
2023/10/18 11:45:45;;;;;;;10.10;5.20;;;;;;;14.72;43.61;99032.16;234436;214;137776;-70
2023/10/18 11:50:48;;;;;;;8.40;5.10;;;;;;;14.92;43.22;99029.70;234440;214;147467;-67
2023/10/18 11:55:56;;;;;;;8.30;4.90;;;;;;;14.95;42.79;99019.30;234540;215;139514;-68
2023/10/18 12:01:05;;;;;;;8.30;5.20;;;;;;;14.86;42.78;99014.44;234582;214;136698;-66
2023/10/18 12:06:11;;;;;;;7.90;4.80;;;;;;;14.74;42.55;99004.14;234415;214;148232;-67
2023/10/18 12:11:16;;;;;;;8.10;4.80;;;;;;;14.54;42.70;98995.06;234497;214;139164;-67
2023/10/18 12:16:22;;;;;;;7.80;4.60;;;;;;;14.41;43.75;98982.42;234544;214;137822;-66
2023/10/18 12:21:32;;;;;;;11.80;4.50;;;;;;;14.43;43.81;98979.28;234539;214;147289;-68
2023/10/18 12:26:35;;;;;;;11.40;4.40;;;;;;;14.47;43.71;98963.98;234374;215;140079;-67
2023/10/18 12:31:39;;;;;;;6.10;4.20;;;;;;;14.38;43.25;98953.61;234696;214;137903;-66
2023/10/18 12:36:49;;;;;;;9.00;3.40;;;;;;;14.33;43.07;98947.39;234516;214;147396;-67
2023/10/18 12:41:53;;;;;;;5.60;3.00;;;;;;;14.37;42.36;98943.13;234640;214;139275;-65
2023/10/18 12:46:56;;;;;;;7.30;3.10;;;;;;;14.36;41.71;98933.41;234452;214;141218;-72
2023/10/18 12:52:01;;;;;;;4.90;3.10;;;;;;;14.30;41.61;98928.52;234422;214;147702;-72
2023/10/18 12:57:13;;;;;;;5.30;2.90;;;;;;;14.25;41.19;98928.44;234558;214;138602;-65
2023/10/18 13:02:46;;;;;;;4.90;3.00;;;;;;;14.31;40.97;98914.54;234424;215;138008;-70
2023/10/18 13:07:43;;;;;;;5.20;2.90;;;;;;;14.41;40.66;98909.84;234651;214;148174;-67
2023/10/18 13:12:53;;;;;;;4.40;2.80;;;;;;;14.45;40.18;98904.86;234437;214;138817;-65
2023/10/18 13:17:57;;;;;;;4.80;3.00;;;;;;;14.42;39.97;98901.48;234554;214;136984;-68
2023/10/18 13:23:01;;;;;;;5.60;3.60;;;;;;;14.38;40.18;98898.27;234269;214;147476;-66
2023/10/18 13:28:05;;;;;;;6.80;3.50;;;;;;;14.35;39.92;98883.34;234490;214;138724;-68
2023/10/18 13:33:11;;;;;;;6.40;3.20;;;;;;;14.29;40.08;98876.01;234384;215;136843;-66
2023/10/18 13:38:15;;;;;;;7.80;3.50;;;;;;;14.25;40.82;98871.69;234212;215;148047;-66
2023/10/18 13:43:19;;;;;;;7.30;3.30;;;;;;;14.22;40.87;98869.43;234442;214;139064;-67
2023/10/18 13:48:25;;;;;;;6.60;3.30;;;;;;;14.22;40.52;98860.50;234353;214;138072;-69
2023/10/18 13:53:28;;;;;;;97.70;64.70;;;;;;;14.20;40.99;98853.27;234425;214;149221;-66
2023/10/18 13:58:32;;;;;;;15.10;8.00;;;;;;;14.26;42.18;98853.41;234270;213;138670;-69
2023/10/18 14:03:37;;;;;;;16.30;10.00;;;;;;;14.33;46.96;98852.47;234528;214;138477;-65
2023/10/18 14:08:45;;;;;;;13.60;6.60;;;;;;;15.59;54.37;98845.17;234380;214;149738;-66
2023/10/18 14:13:49;;;;;;;6.30;3.30;;;;;;;16.03;44.25;98835.55;234501;214;139889;-69
2023/10/18 14:18:52;;;;;;;6.90;3.10;;;;;;;15.50;41.50;98837.92;234415;215;138272;-66
2023/10/18 14:23:59;;;;;;;8.20;4.20;;;;;;;15.13;41.58;98840.67;234396;214;150523;-65
2023/10/18 14:29:05;;;;;;;7.00;3.70;;;;;;;14.88;41.31;98832.08;234360;215;139387;-69
2023/10/18 14:34:08;;;;;;;5.30;3.40;;;;;;;14.66;42.31;98825.70;234484;214;137073;-66
2023/10/18 14:39:11;;;;;;;9.00;3.90;;;;;;;14.51;45.39;98826.60;234207;215;148326;-60
2023/10/18 14:44:17;;;;;;;24.40;3.80;;;;;;;14.55;48.88;98826.77;234369;214;139512;-64
2023/10/18 14:49:21;;;;;;;17.90;4.00;;;;;;;14.39;47.46;98820.95;234442;214;136615;-69
2023/10/18 14:54:24;;;;;;;28.60;4.50;;;;;;;14.18;47.07;98820.26;234216;212;149335;-73
2023/10/18 14:59:27;;;;;;;15.00;4.00;;;;;;;13.93;48.12;98815.52;234298;215;141008;-67
2023/10/18 15:04:31;;;;;;;8.60;3.70;;;;;;;13.70;48.36;98810.35;234428;214;137787;-72
2023/10/18 15:09:34;;;;;;;9.60;3.60;;;;;;;13.50;48.58;98804.59;234326;214;147219;-66
2023/10/18 15:14:37;;;;;;;7.30;3.80;;;;;;;13.32;49.34;98803.92;234360;212;138732;-71
2023/10/18 15:19:41;;;;;;;7.60;3.60;;;;;;;13.13;49.61;98803.71;234359;214;138001;-68
2023/10/18 15:24:44;;;;;;;10.60;4.60;;;;;;;12.98;49.95;98806.42;234376;214;148472;-65
2023/10/18 15:29:52;;;;;;;15.60;4.30;;;;;;;12.83;50.11;98806.84;234388;213;138804;-68
2023/10/18 15:34:55;;;;;;;10.70;4.20;;;;;;;12.65;50.65;98806.09;234353;214;137167;-66
2023/10/18 15:40:02;;;;;;;15.50;4.60;;;;;;;12.51;51.41;98799.97;234313;213;147773;-69
2023/10/18 15:45:06;;;;;;;17.30;4.50;;;;;;;12.37;52.10;98804.25;234272;214;138604;-66
2023/10/18 15:50:10;;;;;;;26.90;5.30;;;;;;;12.23;52.42;98805.59;234407;214;136709;-66
2023/10/18 15:55:14;;;;;;;22.20;5.70;;;;;;;12.10;52.86;98805.51;234534;213;148469;-68
2023/10/18 16:00:23;;;;;;;23.10;5.10;;;;;;;11.93;53.36;98808.10;234342;214;139635;-66
2023/10/18 16:05:31;;;;;;;17.40;5.10;;;;;;;11.76;53.92;98807.51;234398;214;136862;-68
2023/10/18 16:10:34;;;;;;;19.60;5.40;;;;;;;11.56;54.49;98802.91;234338;215;148149;-67
2023/10/18 16:15:39;;;;;;;10.10;5.10;;;;;;;11.41;54.98;98805.66;234435;215;139161;-66
2023/10/18 16:20:42;;;;;;;15.80;4.80;;;;;;;11.29;55.32;98804.73;234420;214;137663;-70
2023/10/18 16:25:45;;;;;;;20.00;5.10;;;;;;;11.16;55.60;98801.54;234636;214;147434;-68
2023/10/18 16:30:48;;;;;;;13.80;4.80;;;;;;;11.09;55.99;98800.79;234430;214;139690;-67
2023/10/18 16:35:56;;;;;;;14.50;6.30;;;;;;;11.00;56.44;98802.67;234317;214;136811;-68
2023/10/18 16:41:05;;;;;;;14.10;5.30;;;;;;;10.87;56.90;98798.70;234420;214;147508;-68
2023/10/18 16:46:11;;;;;;;16.10;5.60;;;;;;;10.76;57.23;98793.80;234282;215;150897;-71
2023/10/18 16:56:30;;;;;;;14.40;6.20;;;;;;;10.62;57.93;98787.98;232999;222;724958;-68
2023/10/18 17:01:33;;;;;;;17.10;6.70;;;;;;;10.51;58.31;98781.11;233973;219;137351;-65
2023/10/18 17:06:37;;;;;;;333.00;220.70;;;;;;;10.44;59.03;98776.38;234259;215;145297;-69
2023/10/18 17:11:40;;;;;;;28.00;13.20;;;;;;;10.42;58.62;98770.46;234246;215;138885;-71
2023/10/18 17:16:48;;;;;;;23.80;11.30;;;;;;;10.32;58.75;98766.33;234669;214;137401;-69
2023/10/18 17:21:51;;;;;;;23.10;12.10;;;;;;;10.21;59.04;98767.56;234700;214;144712;-69
2023/10/18 17:26:54;;;;;;;29.20;13.40;;;;;;;10.12;59.13;98764.44;234663;213;139329;-68
2023/10/18 17:31:58;;;;;;;26.80;12.50;;;;;;;10.04;59.27;98762.63;234988;213;136336;-68
2023/10/18 17:37:01;;;;;;;27.80;12.30;;;;;;;9.97;59.62;98760.45;234635;214;146675;-64
2023/10/18 17:42:04;;;;;;;29.20;14.50;;;;;;;9.91;59.88;98753.92;234664;214;138781;-67
2023/10/18 17:47:08;;;;;;;26.20;13.50;;;;;;;9.85;59.94;98753.98;234546;212;136538;-67
2023/10/18 17:52:12;;;;;;;25.80;13.90;;;;;;;9.77;59.94;98748.40;234560;214;145980;-65
2023/10/18 17:57:18;;;;;;;25.20;13.60;;;;;;;9.69;59.89;98747.48;234641;214;139263;-71
2023/10/18 18:02:21;;;;;;;28.60;13.80;;;;;;;9.61;60.04;98750.10;234626;214;138850;-68
2023/10/18 18:07:25;;;;;;;26.60;13.70;;;;;;;9.54;60.24;98745.81;234556;211;146172;-71
2023/10/18 18:12:28;;;;;;;23.10;14.10;;;;;;;9.49;60.50;98750.52;234649;214;140177;-65
2023/10/18 18:17:31;;;;;;;28.00;14.40;;;;;;;9.41;60.58;98752.77;234500;214;136615;-69
2023/10/18 18:22:35;;;;;;;28.80;15.00;;;;;;;9.32;60.75;98747.69;234321;214;145698;-69
2023/10/18 18:27:38;;;;;;;26.20;14.50;;;;;;;9.25;60.98;98746.70;234424;214;138983;-72
2023/10/18 18:32:42;;;;;;;27.40;15.50;;;;;;;9.18;61.08;98743.05;234463;214;138413;-66
2023/10/18 18:37:46;;;;;;;27.90;15.30;;;;;;;9.10;61.35;98742.61;234694;214;145702;-75
2023/10/18 18:42:50;;;;;;;31.10;14.80;;;;;;;9.05;61.60;98743.34;234589;214;139255;-68
2023/10/18 18:47:56;;;;;;;185.50;126.00;;;;;;;9.06;62.78;98745.23;234369;214;137011;-70
2023/10/18 18:53:00;;;;;;;;;;;;;;;9.11;62.28;98742.98;234727;214;146547;-71
2023/10/18 18:58:05;;;;;;;32.20;14.70;;;;;;;9.00;61.79;98741.31;234710;214;139481;-66
2023/10/18 19:03:08;;;;;;;31.50;14.00;;;;;;;8.87;61.86;98736.84;234574;212;136687;-72
2023/10/18 19:08:12;;;;;;;27.70;14.00;;;;;;;8.72;62.10;98728.30;234526;214;145320;-67
2023/10/18 19:13:15;;;;;;;32.60;14.80;;;;;;;8.63;62.34;98721.61;234637;214;138912;-67
2023/10/18 19:18:19;;;;;;;27.60;14.10;;;;;;;8.53;62.55;98719.02;234542;214;136953;-69
2023/10/18 19:23:25;;;;;;;28.80;14.80;;;;;;;8.42;62.70;98718.41;234504;214;147594;-71
2023/10/18 19:28:28;;;;;;;31.40;15.60;;;;;;;8.36;62.94;98724.73;234499;211;138986;-67
2023/10/18 19:33:31;;;;;;;36.60;16.20;;;;;;;8.29;63.03;98721.58;234540;214;137399;-70
2023/10/18 19:38:35;;;;;;;37.40;17.70;;;;;;;8.23;63.16;98716.48;234574;214;156427;-67
2023/10/18 19:43:38;;;;;;;42.70;19.80;;;;;;;8.20;63.41;98716.83;234739;214;138906;-73
2023/10/18 19:48:41;;;;;;;37.80;19.80;;;;;;;8.17;63.44;98713.14;234613;214;137514;-68
2023/10/18 19:53:45;;;;;;;108.50;72.10;;;;;;;8.11;63.49;98708.52;234609;214;146425;-64
2023/10/18 19:58:49;;;;;;;51.10;27.90;;;;;;;8.28;66.08;98707.02;234479;214;138592;-71
2023/10/18 20:03:52;;;;;;;40.50;21.70;;;;;;;8.68;63.30;98698.14;234646;214;140526;-66
2023/10/18 20:08:55;;;;;;;40.40;21.60;;;;;;;8.44;62.58;98694.97;234564;214;147812;-66
2023/10/18 20:13:58;;;;;;;41.10;22.80;;;;;;;8.23;62.81;98694.05;234685;214;138899;-67
2023/10/18 20:19:02;;;;;;;40.20;23.20;;;;;;;8.07;63.20;98688.44;234582;214;137053;-70
2023/10/18 20:24:05;;;;;;;664.50;518.60;;;;;;;8.01;63.64;98687.02;234645;214;145994;-68
2023/10/18 20:29:10;;;;;;;62.40;34.20;;;;;;;8.11;64.07;98677.98;234592;214;139392;-64
2023/10/18 20:34:13;;;;;;;40.10;25.50;;;;;;;8.02;63.62;98669.63;234657;214;137611;-66
2023/10/18 20:42:30;;;;;;;39.60;23.10;;;;;;;7.91;63.87;98664.64;233376;220;725357;-62
2023/10/18 20:47:35;;;;;;;41.70;22.80;;;;;;;7.82;64.05;98652.90;234330;216;137652;-62
2023/10/18 20:52:41;;;;;;;;;;;;;;;7.78;64.36;98652.27;234332;216;144527;-67
2023/10/18 20:57:44;;;;;;;40.40;21.70;;;;;;;7.73;64.48;98650.77;234079;214;140606;-66
2023/10/18 21:02:50;;;;;;;39.10;21.20;;;;;;;7.65;64.43;98643.48;234331;217;137930;-66
2023/10/18 21:07:55;;;;;;;38.10;22.40;;;;;;;7.59;64.43;98640.67;234449;216;146220;-66
2023/10/18 21:12:59;;;;;;;36.50;20.70;;;;;;;7.53;64.46;98632.83;234283;216;138829;-65
2023/10/18 21:18:03;;;;;;;39.30;21.60;;;;;;;7.46;64.66;98629.04;234320;216;138032;-66
2023/10/18 21:23:06;;;;;;;35.50;21.30;;;;;;;7.41;64.69;98626.11;234234;216;144665;-65
2023/10/18 21:28:10;;;;;;;31.40;20.90;;;;;;;7.37;64.82;98625.10;234208;217;139868;-64
2023/10/18 21:33:15;;;;;;;38.60;21.70;;;;;;;7.33;64.98;98624.61;234795;214;136535;-71
2023/10/18 21:38:19;;;;;;;39.70;21.10;;;;;;;7.30;64.97;98621.45;234753;214;147093;-69
2023/10/18 21:43:25;;;;;;;37.90;21.40;;;;;;;7.31;64.88;98617.32;234818;214;139808;-71
2023/10/18 21:48:30;;;;;;;34.90;20.70;;;;;;;7.35;64.90;98614.83;234795;214;137097;-63
2023/10/18 21:53:33;;;;;;;37.80;21.30;;;;;;;7.40;64.76;98609.23;234645;214;145408;-66
2023/10/18 21:58:39;;;;;;;37.00;21.70;;;;;;;7.40;64.62;98605.88;234752;213;140064;-66
2023/10/18 22:03:43;;;;;;;38.60;21.70;;;;;;;7.36;64.64;98609.27;234669;214;140258;-62
2023/10/18 22:08:49;;;;;;;34.30;21.60;;;;;;;7.28;64.86;98603.35;234707;214;147594;-68
2023/10/18 22:13:54;;;;;;;41.00;22.60;;;;;;;7.23;64.96;98596.61;234732;214;138871;-66
2023/10/18 22:18:57;;;;;;;40.50;22.00;;;;;;;7.21;65.26;98587.02;234632;214;136738;-65
2023/10/18 22:24:01;;;;;;;37.60;22.10;;;;;;;7.17;65.23;98575.94;234446;215;148179;-64
2023/10/18 22:29:04;;;;;;;34.90;21.30;;;;;;;7.12;65.33;98576.05;234627;214;140864;-66
2023/10/18 22:34:07;;;;;;;36.30;22.70;;;;;;;7.06;65.35;98575.10;234590;215;136331;-66
2023/10/18 22:39:12;;;;;;;36.50;22.20;;;;;;;7.02;65.41;98566.89;234632;214;146685;-67
2023/10/18 22:44:32;;;;;;;35.30;21.10;;;;;;;6.98;65.36;98565.73;234685;214;139440;-65
2023/10/18 22:49:41;;;;;;;36.50;21.30;;;;;;;6.91;65.47;98557.78;234976;214;136104;-65
2023/10/18 22:54:45;;;;;;;36.20;22.00;;;;;;;6.84;65.66;98552.86;234590;215;145439;-68
2023/10/18 22:59:48;;;;;;;38.00;21.90;;;;;;;6.80;65.94;98546.77;234544;214;139025;-66
2023/10/18 23:04:54;;;;;;;34.80;21.90;;;;;;;6.76;66.14;98542.23;234669;214;137110;-66
2023/10/18 23:09:59;;;;;;;36.20;21.90;;;;;;;6.72;66.04;98534.87;234523;214;145266;-68
2023/10/18 23:15:18;;;;;;;35.80;22.10;;;;;;;6.68;66.65;98526.96;234678;214;149353;-65
2023/10/18 23:20:56;;;;;;;40.20;22.10;;;;;;;6.71;66.88;98515.17;234749;214;138211;-65
2023/10/18 23:31:31;;;;;;;36.50;22.70;;;;;;;6.85;66.68;98500.10;234804;214;140742;-65
2023/10/18 23:36:36;;;;;;;36.60;22.80;;;;;;;6.88;66.48;98488.30;234589;214;137757;-69
2023/10/18 23:41:42;;;;;;;37.90;22.30;;;;;;;6.86;66.52;98481.52;234552;215;145628;-71
2023/10/18 23:57:10;;;;;;;35.00;22.00;;;;;;;6.75;66.51;98458.73;234754;214;146251;-66
